GCTS/TFS METAR and TAF weather

Enter ICAO airport designator
Station Type Date Time Source
GCTS METAR 2023/01/30 10:30 UTC NOAA

GCTS 301030Z 07010KT 9999 BKN050 17/10 Q1022 NOSIG


Station Type Date Time Source
GCTS Decoded METAR 2023/01/30 10:30 UTC NOAA

Tenerife Sur, Spain (GCTS) 28-03N 016-34W 77M
Jan 30, 2023 - 05:30 AM EST / 2023.01.30 1030 UTC
Wind: from the ENE (070 degrees) at 12 MPH (10 KT):0
Visibility: greater than 7 mile(s):0
Sky conditions: mostly cloudy
Temperature: 62 F (17 C)
Dew Point: 50 F (10 C)
Relative Humidity: 63%
Pressure (altimeter): 30.18 in. Hg (1022 hPa)
ob: GCTS 301030Z 07010KT 9999 BKN050 17/10 Q1022 NOSIG
cycle: 10

Station Type Date Time Source
GCTS TAF 2023/01/30 09:30 UTC NOAA

TAF GCTS 300800Z 3009/3109 07013KT 9999 SCT025 TX20/3014Z TN14/3106Z
TEMPO 3009/3010 36008KT
BECMG 3017/3019 01010KT

Example: see airport list